Time;durP1;ratioP1;P1;durP2;ratioP2;P2;SDS_P1;SDS_P2;PMS_P1;PMS_P2;Temp;Humidity;BMP_temperature;BMP_pressure;BME280_temperature;BME280_humidity;BME280_pressure;Samples;Min_cycle;Max_cycle;Signal;HPM_P1;HPM_P2
2023/01/16 00:01:40;;;;;;;7.60;4.30;;;;;;;5.01;93.04;99507.21;105201;1260;98521;-74
2023/01/16 00:04:27;;;;;;;12.20;5.00;;;;;;;5.00;92.92;99504.52;105110;1261;97784;-74
2023/01/16 00:07:12;;;;;;;7.50;4.10;;;;;;;4.99;92.80;99505.17;105482;1258;97130;-76
2023/01/16 00:09:58;;;;;;;7.60;4.00;;;;;;;4.97;92.55;99508.05;105238;1257;101286;-75
2023/01/16 00:12:48;;;;;;;8.00;4.30;;;;;;;4.95;92.46;99510.12;105260;1270;99202;-74
2023/01/16 00:15:33;;;;;;;8.10;3.90;;;;;;;4.92;92.41;99507.41;105379;1260;98288;-75
2023/01/16 00:18:19;;;;;;;8.30;5.10;;;;;;;4.89;92.42;99509.15;105266;1257;96607;-75
2023/01/16 00:21:04;;;;;;;6.70;4.00;;;;;;;4.89;92.34;99507.61;105282;1260;97888;-74
2023/01/16 00:23:50;;;;;;;8.10;3.80;;;;;;;4.89;92.40;99506.02;105202;1263;101255;-74
2023/01/16 00:26:36;;;;;;;9.00;4.70;;;;;;;4.89;92.36;99506.71;105214;1258;99406;-76
2023/01/16 00:29:21;;;;;;;8.50;4.70;;;;;;;4.87;92.20;99504.60;105260;1261;97720;-75
2023/01/16 00:32:09;;;;;;;7.20;3.90;;;;;;;4.87;92.29;99506.76;105261;1259;96619;-75
2023/01/16 00:34:54;;;;;;;8.10;4.90;;;;;;;4.88;92.34;99508.90;105243;1270;96527;-75
2023/01/16 00:37:40;;;;;;;10.10;5.30;;;;;;;4.88;92.27;99507.31;105277;1259;99980;-74
2023/01/16 00:40:25;;;;;;;7.00;4.40;;;;;;;4.87;92.34;99510.96;105237;1258;100011;-75
2023/01/16 00:43:11;;;;;;;9.80;5.10;;;;;;;4.86;92.26;99513.77;105270;1269;99184;-76
2023/01/16 00:45:57;;;;;;;8.50;4.70;;;;;;;4.84;92.05;99514.20;105467;1263;96676;-76
2023/01/16 00:48:42;;;;;;;10.00;5.30;;;;;;;4.82;92.19;99513.92;105496;1258;97423;-75
2023/01/16 00:51:28;;;;;;;9.10;4.90;;;;;;;4.80;92.20;99510.55;105508;1261;99996;-75
2023/01/16 00:54:13;;;;;;;9.40;5.10;;;;;;;4.78;92.10;99511.52;105423;1269;99193;-76
2023/01/16 00:56:58;;;;;;;9.90;5.80;;;;;;;4.74;92.04;99514.52;105275;1259;99570;-75
2023/01/16 00:59:44;;;;;;;10.90;6.10;;;;;;;4.70;92.06;99519.20;105250;1260;96621;-75
2023/01/16 01:02:30;;;;;;;10.40;5.40;;;;;;;4.64;92.06;99522.48;105299;1260;96997;-75
2023/01/16 01:05:15;;;;;;;8.90;5.40;;;;;;;4.62;92.13;99521.67;105180;1260;101336;-75
2023/01/16 01:08:01;;;;;;;9.50;5.20;;;;;;;4.60;92.15;99520.79;105341;1259;99243;-74
2023/01/16 01:10:46;;;;;;;8.60;5.40;;;;;;;4.57;92.07;99519.45;105258;1257;97694;-74
2023/01/16 01:13:32;;;;;;;9.70;5.90;;;;;;;4.51;91.91;99518.35;105167;1263;97168;-75
2023/01/16 01:16:18;;;;;;;10.00;5.50;;;;;;;4.48;92.07;99518.05;105261;1262;97035;-75
2023/01/16 01:19:03;;;;;;;9.80;6.00;;;;;;;4.43;92.02;99517.47;105423;1259;99999;-76
2023/01/16 01:21:49;;;;;;;9.70;6.00;;;;;;;4.40;92.05;99518.58;105306;1258;99805;-74
2023/01/16 01:24:35;;;;;;;9.60;6.20;;;;;;;4.39;92.24;99520.61;105252;1261;97739;-75
2023/01/16 01:27:20;;;;;;;9.40;5.20;;;;;;;4.39;92.23;99521.31;105203;1261;96693;-74
2023/01/16 01:30:07;;;;;;;9.60;5.30;;;;;;;4.37;91.88;99520.10;105214;1260;99191;-75
2023/01/16 01:32:52;;;;;;;14.40;7.30;;;;;;;4.35;91.70;99514.02;105256;1258;100033;-76
2023/01/16 01:35:38;;;;;;;9.00;6.10;;;;;;;4.32;91.55;99513.42;105351;1257;100312;-75
2023/01/16 01:38:24;;;;;;;10.50;5.60;;;;;;;4.29;91.49;99513.42;105123;1257;97688;-74
2023/01/16 01:41:13;;;;;;;9.60;5.30;;;;;;;4.27;91.55;99511.05;105276;1258;96610;-75
2023/01/16 01:43:58;;;;;;;13.90;5.50;;;;;;;4.24;91.51;99504.65;105322;1260;97174;-75
2023/01/16 01:46:46;;;;;;;8.50;5.90;;;;;;;4.20;91.35;99504.04;105288;1260;100613;-74
2023/01/16 01:49:32;;;;;;;11.80;6.10;;;;;;;4.17;91.45;99501.06;105444;1258;99288;-76
2023/01/16 01:52:20;;;;;;;9.50;6.10;;;;;;;4.15;91.54;99498.10;105445;1257;98737;-78
2023/01/16 01:55:09;;;;;;;10.60;5.90;;;;;;;4.14;91.60;99497.86;105289;1273;96613;-76
2023/01/16 01:58:00;;;;;;;10.80;6.80;;;;;;;4.12;91.47;99495.05;105248;1261;97143;-73
2023/01/16 02:00:48;;;;;;;10.00;5.30;;;;;;;4.11;91.39;99497.48;105185;1257;101272;-76
2023/01/16 02:03:41;;;;;;;8.00;5.10;;;;;;;4.10;91.22;99498.31;105324;1257;99900;-77
2023/01/16 02:06:48;;;;;;;10.20;5.80;;;;;;;4.09;91.21;99495.06;105203;1261;99057;-75
2023/01/16 02:09:35;;;;;;;7.60;5.20;;;;;;;4.05;90.95;99493.63;105378;1256;96628;-75
2023/01/16 02:12:20;;;;;;;8.80;5.70;;;;;;;4.00;90.80;99490.46;105298;1260;97205;-75
2023/01/16 02:15:06;;;;;;;10.80;6.10;;;;;;;3.97;90.91;99485.28;105238;1257;101296;-76
2023/01/16 02:21:25;;;;;;;8.60;6.10;;;;;;;3.92;91.04;99486.77;105204;1259;98496;-75
2023/01/16 02:24:37;;;;;;;8.70;6.40;;;;;;;3.91;91.03;99485.14;105247;1260;97246;-77
2023/01/16 02:27:23;;;;;;;9.70;5.70;;;;;;;3.85;90.63;99480.26;105269;1260;96533;-77
2023/01/16 02:30:30;;;;;;;10.90;6.40;;;;;;;3.82;90.60;99479.95;105332;1260;100632;-75
2023/01/16 02:33:42;;;;;;;8.60;6.20;;;;;;;3.80;90.72;99475.89;105316;1260;100422;-76
2023/01/16 02:36:50;;;;;;;9.40;5.50;;;;;;;3.79;90.86;99476.25;105135;1258;99045;-75
2023/01/16 02:39:38;;;;;;;9.50;6.00;;;;;;;3.75;90.56;99475.39;105208;1257;96637;-75
2023/01/16 02:42:29;;;;;;;11.20;6.10;;;;;;;3.73;90.62;99475.84;105294;1257;96555;-76
2023/01/16 02:45:21;;;;;;;11.00;6.30;;;;;;;3.71;90.68;99473.43;105285;1261;101356;-76
2023/01/16 02:48:34;;;;;;;8.30;5.60;;;;;;;3.69;90.68;99477.02;105274;1260;99802;-76
2023/01/16 02:51:48;;;;;;;9.70;5.10;;;;;;;3.68;90.66;99475.92;105285;1260;98898;-77
2023/01/16 02:54:58;;;;;;;9.10;5.20;;;;;;;3.65;90.45;99474.47;105260;1257;97109;-76
2023/01/16 02:57:49;;;;;;;9.90;6.10;;;;;;;3.60;90.28;99476.08;105464;1260;96641;-76
2023/01/16 03:00:35;;;;;;;10.50;6.10;;;;;;;3.55;90.16;99478.97;105265;1259;99967;-75
2023/01/16 03:03:59;;;;;;;11.10;5.50;;;;;;;3.52;90.40;99479.27;105162;1258;100154;-75
2023/01/16 03:06:55;;;;;;;13.50;5.70;;;;;;;3.49;90.37;99479.08;104741;1263;97668;-75
2023/01/16 03:09:51;;;;;;;11.70;5.90;;;;;;;3.42;90.33;99476.80;104887;1263;96738;-76
2023/01/16 03:13:01;;;;;;;11.40;4.90;;;;;;;3.39;90.68;99471.77;105292;1257;97193;-75
2023/01/16 03:15:58;;;;;;;10.30;5.20;;;;;;;3.36;90.82;99469.81;105233;1257;102150;-76
2023/01/16 03:18:51;;;;;;;8.20;5.10;;;;;;;3.33;91.03;99466.73;105213;1259;99090;-75
2023/01/16 03:22:17;;;;;;;9.20;4.80;;;;;;;3.30;91.09;99473.05;105232;1258;98898;-75
2023/01/16 03:25:28;;;;;;;7.50;5.10;;;;;;;3.28;91.34;99470.65;105357;1257;97804;-77
2023/01/16 03:28:31;;;;;;;9.20;4.90;;;;;;;3.27;91.43;99470.92;105376;1260;97126;-77
2023/01/16 03:31:33;;;;;;;10.30;4.50;;;;;;;3.27;91.57;99471.70;105650;1260;99986;-76
2023/01/16 03:34:38;;;;;;;8.30;4.60;;;;;;;3.24;91.55;99473.39;105376;1260;99768;-73
2023/01/16 03:37:27;;;;;;;8.70;5.10;;;;;;;3.22;91.78;99473.55;105285;1257;97778;-76
2023/01/16 03:40:21;;;;;;;8.90;4.70;;;;;;;3.21;91.80;99476.58;105438;1259;96645;-75
2023/01/16 03:43:13;;;;;;;8.80;4.90;;;;;;;3.19;91.79;99474.33;105254;1257;96618;-75
2023/01/16 03:46:06;;;;;;;7.90;4.90;;;;;;;3.18;91.95;99469.64;105219;1257;101379;-75
2023/01/16 03:49:06;;;;;;;11.70;5.60;;;;;;;3.18;91.95;99473.01;105341;1259;100057;-76
2023/01/16 03:51:58;;;;;;;11.20;5.80;;;;;;;3.19;92.09;99471.72;105230;1257;99064;-76
2023/01/16 03:54:58;;;;;;;8.70;5.90;;;;;;;3.17;91.96;99472.81;105271;1260;97059;-76
2023/01/16 03:57:50;;;;;;;13.30;6.30;;;;;;;3.14;91.94;99469.34;105237;1258;96778;-75
2023/01/16 04:00:47;;;;;;;10.90;6.20;;;;;;;3.13;92.02;99470.83;105301;1258;101655;-76
2023/01/16 04:03:40;;;;;;;12.00;5.40;;;;;;;3.11;92.13;99472.16;105375;1256;100124;-76
2023/01/16 04:06:34;;;;;;;13.50;6.40;;;;;;;3.08;92.12;99475.59;105298;1258;98092;-76
2023/01/16 04:09:45;;;;;;;13.20;5.80;;;;;;;3.05;92.11;99474.05;105386;1257;97364;-76
2023/01/16 04:12:35;;;;;;;13.30;6.10;;;;;;;3.02;92.20;99469.64;105384;1259;97055;-77
2023/01/16 04:15:24;;;;;;;9.50;5.80;;;;;;;2.99;92.39;99465.88;105291;1256;101056;-76
2023/01/16 04:18:09;;;;;;;10.50;5.60;;;;;;;2.95;92.33;99470.57;105274;1259;99052;-75
2023/01/16 04:20:55;;;;;;;12.50;7.50;;;;;;;2.93;92.52;99470.90;105254;1257;98837;-75
2023/01/16 04:23:42;;;;;;;9.60;6.00;;;;;;;2.92;92.63;99466.45;105266;1260;98400;-75
2023/01/16 04:26:28;;;;;;;9.70;5.30;;;;;;;2.92;92.75;99459.59;105225;1258;97148;-75
2023/01/16 04:29:13;;;;;;;10.00;5.60;;;;;;;2.92;92.71;99461.73;105138;1260;100119;-74
2023/01/16 04:31:59;;;;;;;8.50;6.00;;;;;;;2.90;92.65;99466.13;105205;1257;101232;-76
2023/01/16 04:34:44;;;;;;;9.80;5.50;;;;;;;2.89;92.76;99469.09;105209;1270;98275;-75
2023/01/16 04:37:31;;;;;;;10.90;6.00;;;;;;;2.88;92.67;99473.09;105573;1260;97157;-77
2023/01/16 04:40:16;;;;;;;9.70;5.50;;;;;;;2.88;92.82;99478.57;105437;1260;97127;-76
2023/01/16 04:43:02;;;;;;;6.80;5.10;;;;;;;2.87;92.78;99479.77;105259;1257;99985;-75
2023/01/16 04:45:47;;;;;;;10.10;5.90;;;;;;;2.84;92.86;99481.65;105191;1258;99063;-75
2023/01/16 04:48:33;;;;;;;8.30;6.00;;;;;;;2.81;92.81;99481.27;105264;1260;98950;-77
2023/01/16 04:51:18;;;;;;;11.10;5.60;;;;;;;2.80;92.79;99478.44;105152;1257;96684;-76
2023/01/16 04:54:05;;;;;;;8.80;6.10;;;;;;;2.79;92.80;99482.37;105299;1257;96550;-76
2023/01/16 04:56:50;;;;;;;11.30;6.90;;;;;;;2.78;92.73;99480.55;105273;1259;100010;-75
2023/01/16 04:59:36;;;;;;;11.80;6.00;;;;;;;2.75;92.72;99475.04;105291;1258;100338;-75
2023/01/16 05:02:21;;;;;;;10.00;6.30;;;;;;;2.74;92.85;99476.75;105261;1257;98471;-74
2023/01/16 05:05:07;;;;;;;10.40;6.00;;;;;;;2.74;92.96;99478.63;105232;1257;96876;-76
2023/01/16 05:11:00;;;;;;;11.60;6.40;;;;;;;2.71;92.71;99480.78;105554;1257;100730;-75
2023/01/16 05:13:46;;;;;;;12.20;7.10;;;;;;;2.68;92.80;99478.27;105218;1257;99040;-77
2023/01/16 05:16:31;;;;;;;9.70;6.90;;;;;;;2.66;92.81;99480.60;105217;1257;97698;-76
2023/01/16 05:19:16;;;;;;;11.80;6.30;;;;;;;2.65;92.93;99479.38;105209;1259;96677;-77
2023/01/16 05:22:03;;;;;;;9.60;6.00;;;;;;;2.63;92.96;99474.26;105571;1257;97037;-75
2023/01/16 05:24:48;;;;;;;12.90;6.20;;;;;;;2.63;92.80;99469.33;105268;1256;99988;-76
2023/01/16 05:27:33;;;;;;;11.30;6.20;;;;;;;2.63;92.98;99468.93;105269;1259;100740;-75
2023/01/16 05:30:19;;;;;;;12.60;6.40;;;;;;;2.64;92.94;99464.14;105200;1257;97704;-75
2023/01/16 05:33:06;;;;;;;15.10;7.60;;;;;;;2.62;92.82;99459.03;105138;1260;96530;-75
2023/01/16 05:35:53;;;;;;;11.90;6.80;;;;;;;2.61;92.78;99455.33;105238;1259;96690;-75
2023/01/16 05:38:39;;;;;;;12.40;7.10;;;;;;;2.59;92.82;99453.17;105286;1257;100743;-74
2023/01/16 05:41:24;;;;;;;12.00;7.10;;;;;;;2.58;92.89;99453.84;105435;1257;99145;-78
2023/01/16 05:44:09;;;;;;;10.10;6.70;;;;;;;2.58;92.86;99453.07;105493;1260;97712;-76
2023/01/16 05:46:55;;;;;;;12.00;6.20;;;;;;;2.58;92.74;99451.39;105445;1259;96683;-77
2023/01/16 05:49:40;;;;;;;9.60;6.20;;;;;;;2.55;92.74;99450.05;105252;1257;97051;-76
2023/01/16 05:52:27;;;;;;;11.80;6.60;;;;;;;2.53;92.70;99450.33;105254;1259;100008;-75
2023/01/16 05:55:12;;;;;;;9.40;6.20;;;;;;;2.53;92.80;99448.58;105262;1257;99042;-77
2023/01/16 05:57:58;;;;;;;11.30;6.30;;;;;;;2.51;92.85;99443.45;105384;1259;98297;-76
2023/01/16 06:00:43;;;;;;;8.20;5.30;;;;;;;2.52;92.75;99438.66;105366;1260;96610;-76
2023/01/16 06:03:29;;;;;;;9.50;5.90;;;;;;;2.50;92.65;99432.65;105205;1259;96615;-76
2023/01/16 06:06:15;;;;;;;12.50;6.30;;;;;;;2.51;92.90;99429.91;105177;1260;100107;-76
2023/01/16 06:09:00;;;;;;;11.70;6.50;;;;;;;2.50;92.79;99428.41;105198;1257;99252;-76
2023/01/16 06:11:46;;;;;;;9.30;5.50;;;;;;;2.50;92.70;99428.45;105347;1257;98985;-76
2023/01/16 06:14:31;;;;;;;9.50;5.40;;;;;;;2.51;92.55;99431.13;105252;1260;97173;-77
2023/01/16 06:17:18;;;;;;;8.70;5.30;;;;;;;2.49;92.42;99435.55;105442;1257;98027;-77
2023/01/16 06:20:04;;;;;;;9.80;5.40;;;;;;;2.47;92.30;99435.66;105281;1259;99968;-76
2023/01/16 06:22:50;;;;;;;11.10;5.80;;;;;;;2.44;92.30;99439.44;105255;1256;100295;-77
2023/01/16 06:25:35;;;;;;;13.00;6.30;;;;;;;2.45;92.48;99446.75;105261;1260;100436;-76
2023/01/16 06:28:21;;;;;;;12.30;6.50;;;;;;;2.48;92.61;99444.93;105245;1260;97204;-77
2023/01/16 06:31:07;;;;;;;11.50;6.30;;;;;;;2.50;92.77;99445.50;105174;1257;98188;-76
2023/01/16 06:33:53;;;;;;;10.90;6.80;;;;;;;2.53;92.63;99449.80;105248;1257;100074;-75
2023/01/16 06:36:41;;;;;;;11.40;6.90;;;;;;;2.54;92.48;99447.09;105242;1256;100486;-74
2023/01/16 06:39:26;;;;;;;11.00;6.80;;;;;;;2.51;92.33;99448.20;105232;1256;98974;-75
2023/01/16 06:42:11;;;;;;;11.90;7.20;;;;;;;2.48;92.46;99448.53;105289;1257;97036;-75
2023/01/16 06:44:57;;;;;;;12.90;7.60;;;;;;;2.47;92.57;99444.92;105244;1257;98350;-74
2023/01/16 06:47:42;;;;;;;14.60;7.30;;;;;;;2.47;92.53;99444.23;105428;1259;99987;-75
2023/01/16 06:50:28;;;;;;;14.70;8.90;;;;;;;2.49;92.71;99444.94;105188;1259;99885;-75
2023/01/16 06:53:14;;;;;;;13.00;7.50;;;;;;;2.49;92.53;99443.58;105196;1257;99071;-74
2023/01/16 06:56:00;;;;;;;17.10;9.50;;;;;;;2.46;92.56;99448.27;105255;1257;96546;-75
2023/01/16 06:58:45;;;;;;;16.90;9.90;;;;;;;2.46;92.64;99449.48;105361;1255;97160;-75
2023/01/16 07:01:31;;;;;;;14.20;8.20;;;;;;;2.47;92.60;99450.58;105237;1257;100045;-76
2023/01/16 07:04:16;;;;;;;16.50;8.60;;;;;;;2.49;92.77;99454.95;105223;1259;99231;-75
2023/01/16 07:07:02;;;;;;;14.40;7.40;;;;;;;2.52;92.88;99454.65;105190;1259;99252;-75
2023/01/16 07:09:48;;;;;;;13.30;7.30;;;;;;;2.53;92.84;99450.82;105311;1259;97125;-75
2023/01/16 07:12:33;;;;;;;11.90;6.90;;;;;;;2.52;92.69;99448.84;105224;1256;97160;-75
2023/01/16 07:24:38;;;;;;;10.90;6.90;;;;;;;2.52;92.82;99443.36;105264;1255;96911;-76
2023/01/16 07:27:24;;;;;;;10.80;6.60;;;;;;;2.52;92.65;99449.14;105214;1260;97151;-76
2023/01/16 07:30:11;;;;;;;10.30;6.70;;;;;;;2.54;92.78;99450.59;105244;1259;101775;-76
2023/01/16 07:32:56;;;;;;;11.30;6.60;;;;;;;2.55;92.78;99445.64;105293;1257;99304;-74
2023/01/16 07:35:43;;;;;;;10.40;6.60;;;;;;;2.56;92.78;99440.61;105238;1259;98979;-74
2023/01/16 07:38:29;;;;;;;12.80;6.60;;;;;;;2.56;92.67;99439.20;105263;1256;96542;-75
2023/01/16 07:41:15;;;;;;;11.80;6.60;;;;;;;2.57;92.58;99436.88;105234;1257;96820;-75
2023/01/16 07:44:01;;;;;;;9.80;6.20;;;;;;;2.56;92.70;99431.13;105212;1257;101210;-75
2023/01/16 07:46:46;;;;;;;11.20;5.70;;;;;;;2.57;92.73;99431.42;105343;1260;100375;-76
2023/01/16 07:49:32;;;;;;;9.50;5.70;;;;;;;2.58;92.93;99431.77;105239;1259;98919;-74
2023/01/16 07:52:18;;;;;;;10.60;6.40;;;;;;;2.60;93.06;99432.98;105272;1257;96677;-74
2023/01/16 07:55:05;;;;;;;13.90;7.00;;;;;;;2.63;93.07;99429.61;105569;1259;96847;-75
2023/01/16 07:57:51;;;;;;;11.60;6.20;;;;;;;2.67;93.18;99426.05;105329;1257;102185;-75
2023/01/16 08:00:36;;;;;;;13.20;6.70;;;;;;;2.69;93.07;99426.87;105296;1259;99065;-75
2023/01/16 08:03:23;;;;;;;12.70;6.60;;;;;;;2.71;93.11;99423.63;105272;1255;97801;-74
2023/01/16 08:06:08;;;;;;;11.60;7.30;;;;;;;2.74;93.10;99421.91;105428;1259;96607;-75
2023/01/16 08:08:54;;;;;;;12.90;7.50;;;;;;;2.77;93.26;99420.73;105233;1259;97916;-75
2023/01/16 08:11:39;;;;;;;12.70;7.80;;;;;;;2.79;93.03;99422.09;105289;1259;101247;-74
2023/01/16 08:14:25;;;;;;;15.00;8.40;;;;;;;2.81;93.08;99424.39;105268;1259;99348;-74
2023/01/16 08:17:10;;;;;;;16.00;8.20;;;;;;;2.81;93.02;99425.98;105208;1257;99417;-74
2023/01/16 08:19:56;;;;;;;17.70;8.30;;;;;;;2.82;93.19;99422.14;105267;1259;96605;-74
2023/01/16 08:22:46;;;;;;;16.10;8.60;;;;;;;2.84;93.15;99418.88;105366;1255;97145;-74
2023/01/16 08:25:31;;;;;;;14.90;7.80;;;;;;;2.87;93.10;99413.98;105343;1257;101277;-76
2023/01/16 08:28:17;;;;;;;15.30;7.90;;;;;;;2.88;93.03;99412.45;105260;1257;100312;-74
2023/01/16 08:31:07;;;;;;;19.00;8.70;;;;;;;2.90;93.08;99411.04;105203;1261;97857;-76
2023/01/16 08:33:52;;;;;;;19.80;9.40;;;;;;;2.90;92.92;99407.83;105316;1257;96518;-77
2023/01/16 08:36:38;;;;;;;15.20;8.20;;;;;;;2.92;93.02;99404.78;105236;1257;97103;-74
2023/01/16 08:39:26;;;;;;;15.30;8.10;;;;;;;2.94;92.97;99399.33;105307;1257;101599;-75
2023/01/16 08:51:29;;;;;;;15.10;7.10;;;;;;;3.01;92.90;99404.44;105312;1259;97130;-75
2023/01/16 08:54:14;;;;;;;14.70;7.50;;;;;;;3.04;92.94;99401.49;105318;1256;100037;-74
2023/01/16 08:57:00;;;;;;;12.70;7.60;;;;;;;3.08;92.99;99392.81;105283;1259;99071;-73
2023/01/16 08:59:46;;;;;;;15.30;8.70;;;;;;;3.11;93.11;99391.03;105486;1256;99927;-77
2023/01/16 09:02:35;;;;;;;15.30;9.20;;;;;;;3.15;92.97;99386.77;105318;1257;97224;-75
2023/01/16 09:05:22;;;;;;;20.50;10.50;;;;;;;3.17;93.14;99384.92;105244;1257;96596;-74
2023/01/16 09:08:08;;;;;;;17.50;10.50;;;;;;;3.20;93.17;99382.77;105343;1259;100814;-77
2023/01/16 09:14:00;;;;;;;13.70;8.00;;;;;;;3.27;93.13;99386.30;105279;1256;97733;-76
2023/01/16 09:16:45;;;;;;;15.30;8.10;;;;;;;3.31;93.41;99383.66;105336;1259;96602;-76
2023/01/16 09:19:30;;;;;;;15.20;7.50;;;;;;;3.37;93.37;99383.25;105317;1260;97108;-75
2023/01/16 09:22:16;;;;;;;10.20;6.50;;;;;;;3.42;93.47;99381.06;105300;1256;101162;-75
2023/01/16 09:25:02;;;;;;;11.10;6.80;;;;;;;3.48;93.69;99377.20;105269;1259;100364;-76
2023/01/16 09:27:47;;;;;;;17.60;8.00;;;;;;;3.53;93.75;99370.46;105298;1256;98928;-76
2023/01/16 09:30:33;;;;;;;13.50;7.40;;;;;;;3.57;93.55;99367.13;105351;1259;96667;-74
2023/01/16 09:33:19;;;;;;;11.50;7.20;;;;;;;3.61;93.58;99362.85;105289;1259;96529;-75
2023/01/16 09:36:04;;;;;;;15.70;8.80;;;;;;;3.65;93.68;99360.94;105315;1259;100660;-74
2023/01/16 09:38:50;;;;;;;12.50;7.40;;;;;;;3.70;93.60;99360.58;105344;1259;99866;-74
2023/01/16 09:45:11;;;;;;;13.90;7.80;;;;;;;3.76;93.44;99355.75;105177;1260;96578;-74
2023/01/16 09:48:04;;;;;;;12.80;8.30;;;;;;;3.79;93.27;99352.46;105200;1256;97798;-74
2023/01/16 09:50:57;;;;;;;11.70;7.90;;;;;;;3.82;93.23;99348.01;105289;1256;101427;-73
2023/01/16 10:00:08;;;;;;;14.70;8.50;;;;;;;3.99;93.55;99340.98;105269;1257;96680;-74
2023/01/16 10:02:56;;;;;;;19.90;10.00;;;;;;;4.04;93.43;99340.06;105218;1257;97038;-75
2023/01/16 10:06:20;;;;;;;15.90;8.60;;;;;;;4.09;93.30;99336.09;105467;1257;100974;-75
2023/01/16 10:09:26;;;;;;;16.80;8.00;;;;;;;4.14;93.50;99329.48;105639;1259;99461;-75
2023/01/16 10:12:14;;;;;;;21.80;9.50;;;;;;;4.18;93.44;99325.13;106651;1256;98986;-75
2023/01/16 10:15:02;;;;;;;17.60;8.60;;;;;;;4.22;93.17;99316.42;105205;1261;96691;-74
2023/01/16 10:18:05;;;;;;;17.30;8.60;;;;;;;4.26;92.98;99316.85;105305;1257;97134;-75
2023/01/16 10:21:24;;;;;;;19.30;9.90;;;;;;;4.29;92.98;99314.27;105365;1259;100941;-75
2023/01/16 10:24:25;;;;;;;15.70;9.90;;;;;;;4.33;93.14;99311.76;105240;1258;101363;-74
2023/01/16 10:27:18;;;;;;;15.80;10.70;;;;;;;4.35;93.03;99308.52;105574;1257;98955;-75
2023/01/16 10:30:13;;;;;;;18.20;10.60;;;;;;;4.37;93.20;99302.62;105223;1259;97878;-74
2023/01/16 10:33:18;;;;;;;16.70;9.80;;;;;;;4.41;93.06;99303.56;105293;1259;97134;-75
2023/01/16 10:36:05;;;;;;;14.50;9.70;;;;;;;4.43;92.91;99305.01;105224;1259;100722;-74
2023/01/16 10:38:56;;;;;;;16.30;9.90;;;;;;;4.44;92.82;99302.64;105772;1257;99276;-74
2023/01/16 10:51:35;;;;;;;15.70;10.10;;;;;;;4.47;92.56;99281.45;105237;1260;101401;-75
2023/01/16 10:54:20;;;;;;;17.90;9.50;;;;;;;4.49;92.44;99277.80;105235;1259;99111;-75
2023/01/16 10:57:18;;;;;;;17.40;10.10;;;;;;;4.51;92.69;99275.77;105141;1257;97901;-74
2023/01/16 11:00:08;;;;;;;18.70;10.30;;;;;;;4.55;93.08;99276.73;105219;1257;96667;-73
2023/01/16 11:02:58;;;;;;;15.40;9.20;;;;;;;4.61;93.31;99270.77;105172;1260;96567;-74
2023/01/16 11:05:43;;;;;;;18.00;9.80;;;;;;;4.67;93.13;99264.41;105248;1257;101265;-74
2023/01/16 11:08:29;;;;;;;16.10;9.20;;;;;;;4.70;92.84;99254.98;105290;1259;99232;-73
2023/01/16 11:20:41;;;;;;;16.80;9.80;;;;;;;4.85;92.72;99232.39;105265;1259;99840;-75
2023/01/16 11:23:37;;;;;;;19.60;10.10;;;;;;;4.88;92.81;99222.06;105169;1257;100480;-76
2023/01/16 11:26:24;;;;;;;16.60;9.90;;;;;;;4.92;92.86;99218.33;105240;1256;98916;-75
2023/01/16 11:29:16;;;;;;;17.50;9.90;;;;;;;4.96;92.69;99211.69;105263;1261;96517;-76
2023/01/16 11:32:08;;;;;;;18.00;10.10;;;;;;;4.99;92.70;99204.21;105217;1259;97763;-74
2023/01/16 11:34:57;;;;;;;16.90;9.70;;;;;;;5.03;92.55;99199.52;105259;1259;101289;-76
2023/01/16 11:37:45;;;;;;;16.80;9.90;;;;;;;5.08;92.58;99195.59;105265;1257;100121;-75
2023/01/16 11:40:42;;;;;;;17.70;10.70;;;;;;;5.12;92.46;99189.88;105241;1257;97901;-76
2023/01/16 11:46:38;;;;;;;22.20;12.40;;;;;;;5.21;92.20;99180.14;105346;1259;97600;-73
2023/01/16 11:49:35;;;;;;;16.60;10.10;;;;;;;5.24;92.07;99180.45;105165;1256;100007;-74
2023/01/16 11:52:29;;;;;;;17.80;10.40;;;;;;;5.25;91.81;99173.58;105257;1255;99030;-75
2023/01/16 11:55:16;;;;;;;17.80;10.90;;;;;;;5.28;91.49;99160.27;105265;1260;97727;-76
2023/01/16 11:58:19;;;;;;;15.10;9.40;;;;;;;5.31;91.65;99154.44;105159;1259;96731;-75
2023/01/16 12:02:15;;;;;;;17.20;8.90;;;;;;;5.35;91.62;99151.14;105316;1259;98294;-76
2023/01/16 12:05:53;;;;;;;16.60;9.10;;;;;;;5.38;91.19;99146.52;105378;1259;99980;-76
2023/01/16 12:08:22;;;;;;;20.20;8.80;;;;;;;5.41;91.16;99139.19;105393;1257;100464;-77
2023/01/16 12:11:09;;;;;;;15.50;9.50;;;;;;;5.45;91.27;99134.81;105547;1257;97732;-76
2023/01/16 12:14:18;;;;;;;18.10;9.40;;;;;;;5.49;91.14;99129.54;105320;1259;96749;-76
2023/01/16 12:17:17;;;;;;;15.00;9.50;;;;;;;5.53;91.14;99122.17;105395;1259;96018;-76
2023/01/16 12:20:43;;;;;;;18.10;10.70;;;;;;;5.55;90.85;99110.52;105224;1257;100697;-75
2023/01/16 12:23:57;;;;;;;17.00;9.70;;;;;;;5.55;90.37;99104.52;105341;1259;99832;-76
2023/01/16 12:27:07;;;;;;;16.00;9.00;;;;;;;5.56;90.48;99102.11;105292;1259;98628;-76
2023/01/16 12:30:31;;;;;;;17.00;10.10;;;;;;;5.56;90.19;99097.29;105566;1259;96546;-76
2023/01/16 12:33:44;;;;;;;15.10;9.30;;;;;;;5.56;89.79;99093.81;105355;1259;96621;-76
2023/01/16 12:36:51;;;;;;;15.00;9.50;;;;;;;5.55;89.75;99087.67;105249;1259;101191;-75
2023/01/16 12:40:05;;;;;;;13.80;8.50;;;;;;;5.54;89.54;99082.40;105197;1259;99066;-74
2023/01/16 12:46:14;;;;;;;12.60;7.50;;;;;;;5.51;89.74;99081.84;105277;1259;96544;-75
2023/01/16 12:49:24;;;;;;;13.60;7.80;;;;;;;5.49;89.21;99084.89;105446;1259;95896;-77
2023/01/16 12:52:29;;;;;;;23.60;13.10;;;;;;;5.47;89.42;99080.84;105247;1256;99976;-76
2023/01/16 12:55:25;;;;;;;15.80;10.40;;;;;;;5.47;89.72;99073.79;105314;1259;100038;-76
2023/01/16 12:58:18;;;;;;;16.50;10.20;;;;;;;5.48;89.81;99072.83;105302;1272;99039;-76
2023/01/16 13:01:19;;;;;;;18.60;9.80;;;;;;;5.48;90.00;99069.48;105189;1256;96613;-75
2023/01/16 13:04:13;;;;;;;15.90;10.60;;;;;;;5.50;90.31;99067.48;105115;1257;97165;-76
2023/01/16 13:07:00;;;;;;;17.80;11.20;;;;;;;5.51;90.25;99061.90;105258;1260;100998;-74
2023/01/16 13:13:26;;;;;;;17.40;10.80;;;;;;;5.45;89.86;99052.83;105193;1259;97873;-75
2023/01/16 13:16:33;;;;;;;20.80;12.20;;;;;;;5.41;89.80;99051.20;105286;1259;97935;-75
2023/01/16 13:19:31;;;;;;;19.30;12.80;;;;;;;5.36;89.79;99047.97;105324;1262;97918;-78
2023/01/16 13:22:34;;;;;;;18.80;12.60;;;;;;;5.28;89.51;99042.75;105387;1262;101190;-76
2023/01/16 13:25:49;;;;;;;19.70;11.80;;;;;;;5.22;89.64;99042.25;105208;1256;99289;-74
2023/01/16 13:28:57;;;;;;;23.20;13.20;;;;;;;5.20;89.88;99042.44;105256;1259;100333;-75
2023/01/16 13:31:53;;;;;;;20.20;13.00;;;;;;;5.18;90.10;99047.24;105271;1259;96973;-75
2023/01/16 13:34:45;;;;;;;21.30;14.60;;;;;;;5.17;90.23;99046.66;105277;1256;97112;-75
2023/01/16 13:37:34;;;;;;;19.40;13.10;;;;;;;5.16;90.40;99041.83;105214;1256;100398;-75
2023/01/16 13:40:34;;;;;;;18.80;11.60;;;;;;;5.15;90.29;99040.23;105177;1256;99262;-76
2023/01/16 13:46:35;;;;;;;20.00;12.60;;;;;;;5.10;90.02;99025.23;105179;1257;96528;-76
2023/01/16 13:49:24;;;;;;;22.80;12.60;;;;;;;5.10;90.14;99016.66;105241;1259;97037;-75
2023/01/16 13:52:21;;;;;;;23.20;13.80;;;;;;;5.09;90.29;99018.16;105331;1259;101238;-75
2023/01/16 13:55:39;;;;;;;18.50;13.00;;;;;;;5.07;90.19;99018.23;107989;1257;101809;-77
2023/01/16 13:58:26;;;;;;;22.20;12.70;;;;;;;5.05;90.08;99011.95;105368;1259;98908;-75
2023/01/16 14:01:39;;;;;;;21.20;13.00;;;;;;;5.02;89.87;99006.58;105254;1257;96670;-76
2023/01/16 14:04:28;;;;;;;20.50;11.60;;;;;;;5.01;89.88;99009.30;105227;1255;97146;-75
2023/01/16 14:10:56;;;;;;;17.40;12.40;;;;;;;4.98;89.79;99001.69;105232;1256;100422;-75
2023/01/16 14:13:43;;;;;;;22.70;13.40;;;;;;;4.96;89.75;99001.30;105271;1259;97738;-75
2023/01/16 14:16:33;;;;;;;17.70;12.40;;;;;;;4.96;89.77;98996.73;105229;1257;96660;-75
2023/01/16 14:19:22;;;;;;;24.80;12.20;;;;;;;4.96;89.95;98992.00;105639;1259;97682;-75
2023/01/16 14:25:07;;;;;;;21.00;12.90;;;;;;;4.96;89.76;98981.84;105192;1261;100280;-74
2023/01/16 14:27:54;;;;;;;27.80;15.60;;;;;;;4.95;89.81;98978.30;105431;1259;100020;-76
2023/01/16 14:30:39;;;;;;;27.00;17.10;;;;;;;4.94;89.99;98977.77;105244;1259;96689;-76
2023/01/16 14:33:27;;;;;;;34.40;17.50;;;;;;;4.93;90.01;98980.73;105278;1256;97109;-76